createdAt,value
2022-12-16T06:02:47.017Z,0.50
2022-12-16T06:08:09.931Z,0.50
2022-12-16T06:13:31.294Z,0.50
2022-12-16T06:18:53.350Z,0.50
2022-12-16T06:24:14.457Z,0.40
2022-12-16T06:29:35.648Z,0.50
2022-12-16T06:34:57.942Z,0.60
2022-12-16T06:40:19.004Z,0.60
2022-12-16T06:45:40.493Z,0.50
2022-12-16T06:51:03.281Z,0.40
2022-12-16T06:56:25.143Z,0.40
2022-12-16T07:01:55.198Z,0.40
2022-12-16T07:07:17.792Z,0.40
2022-12-16T07:12:38.956Z,0.30
2022-12-16T07:18:00.096Z,0.70
2022-12-16T07:23:22.352Z,0.10
2022-12-16T07:28:43.786Z,0.20
2022-12-16T07:34:04.920Z,0.30
2022-12-16T07:39:27.526Z,0.10
2022-12-16T07:44:48.796Z,0.20
2022-12-16T07:50:09.935Z,0.20
2022-12-16T07:55:32.621Z,0.20
2022-12-16T08:00:53.959Z,0.00
2022-12-16T08:06:16.914Z,0.00
2022-12-16T08:11:39.370Z,0.00
2022-12-16T08:17:12.389Z,-1.10
2022-12-16T08:22:33.883Z,0.10
2022-12-16T08:27:55.992Z,0.20
2022-12-16T08:33:19.525Z,0.20
2022-12-16T08:38:49.520Z,0.30
2022-12-16T08:44:14.531Z,0.50
2022-12-16T08:49:35.648Z,0.50
2022-12-16T08:54:56.904Z,0.70
2022-12-16T09:00:19.343Z,0.70
2022-12-16T09:05:40.452Z,1.00
2022-12-16T09:11:01.683Z,1.20
2022-12-16T09:16:24.894Z,1.60
2022-12-16T09:21:45.935Z,2.10
2022-12-16T09:27:07.184Z,2.60
2022-12-16T09:32:29.784Z,3.00
2022-12-16T09:37:50.911Z,3.40
2022-12-16T09:43:19.118Z,3.80
2022-12-16T09:48:52.213Z,4.30
2022-12-16T09:54:23.984Z,4.70
2022-12-16T09:59:51.014Z,5.20
2022-12-16T10:05:13.512Z,5.70
2022-12-16T10:10:41.301Z,6.20
2022-12-16T10:16:08.281Z,6.70
2022-12-16T10:21:37.476Z,7.20
2022-12-16T10:27:08.678Z,7.70
2022-12-16T10:32:36.701Z,8.20
2022-12-16T10:38:00.866Z,8.70
2022-12-16T10:43:30.137Z,9.10
2022-12-16T10:48:56.607Z,9.50
2022-12-16T10:54:39.042Z,9.70
2022-12-16T11:00:00.200Z,10.00
2022-12-16T11:05:39.061Z,10.20
2022-12-16T11:11:02.635Z,10.50
2022-12-16T11:16:33.472Z,10.80
2022-12-16T11:21:54.723Z,11.00
2022-12-16T11:27:18.646Z,11.20
2022-12-16T11:32:43.801Z,11.30
2022-12-16T11:38:07.686Z,11.50
2022-12-16T11:43:33.701Z,11.90
2022-12-16T11:48:56.443Z,12.20
2022-12-16T11:54:22.657Z,12.60
2022-12-16T11:59:51.283Z,13.10
2022-12-16T12:05:12.422Z,13.50
2022-12-16T12:10:53.918Z,13.80
2022-12-16T12:16:29.032Z,14.20
2022-12-16T12:21:58.362Z,14.70
2022-12-16T12:27:26.423Z,15.00
2022-12-16T12:32:57.835Z,15.20
2022-12-16T12:38:24.901Z,15.40
2022-12-16T12:43:57.456Z,15.60
2022-12-16T12:49:28.719Z,15.70
2022-12-16T12:54:56.515Z,15.90
2022-12-16T13:00:21.958Z,16.20
2022-12-16T13:05:53.435Z,16.50
2022-12-16T13:11:34.982Z,16.60
2022-12-16T13:17:25.838Z,16.60
2022-12-16T13:22:50.946Z,16.50
2022-12-16T13:28:14.319Z,16.40
2022-12-16T13:33:49.323Z,16.40
2022-12-16T13:39:13.295Z,16.30
2022-12-16T13:45:17.737Z,16.30
2022-12-16T13:50:59.577Z,16.40
2022-12-16T13:56:23.152Z,16.40
2022-12-16T14:01:52.768Z,16.40
2022-12-16T14:07:24.454Z,16.20
2022-12-16T14:13:08.845Z,16.10
2022-12-16T14:18:43.906Z,16.10
2022-12-16T14:24:11.965Z,16.00
2022-12-16T14:29:39.953Z,15.80
2022-12-16T14:35:02.470Z,15.60
2022-12-16T14:40:45.922Z,15.40
2022-12-16T14:46:08.269Z,15.10
2022-12-16T14:51:42.256Z,14.80
2022-12-16T14:57:03.564Z,14.60
2022-12-16T15:02:37.336Z,14.50
2022-12-16T15:08:00.119Z,14.20
2022-12-16T15:13:21.209Z,14.00
2022-12-16T15:18:46.094Z,13.70
2022-12-16T15:24:09.496Z,13.40
2022-12-16T15:29:47.239Z,13.10
2022-12-16T15:35:08.339Z,12.80
2022-12-16T15:40:43.796Z,12.60
2022-12-16T15:46:07.916Z,12.40
2022-12-16T15:51:47.503Z,12.20
2022-12-16T15:57:09.842Z,11.90
2022-12-16T16:02:36.001Z,11.60
2022-12-16T16:08:02.028Z,11.20
2022-12-16T16:13:26.488Z,10.80
2022-12-16T16:18:47.592Z,10.40
2022-12-16T16:24:08.944Z,10.00
2022-12-16T16:29:31.311Z,9.60
2022-12-16T16:34:58.048Z,9.30
2022-12-16T16:40:19.331Z,9.10
2022-12-16T16:45:42.031Z,8.80
2022-12-16T16:51:03.213Z,8.50
2022-12-16T16:56:24.901Z,8.30
2022-12-16T17:01:47.334Z,8.00
2022-12-16T17:07:08.495Z,7.80
2022-12-16T17:12:38.164Z,7.50
2022-12-16T17:18:00.688Z,7.30
2022-12-16T17:23:22.400Z,7.10
2022-12-16T17:28:43.752Z,6.80
2022-12-16T17:34:06.276Z,6.60
2022-12-16T17:39:29.532Z,6.40
2022-12-16T17:44:51.182Z,6.30
2022-12-16T17:50:13.840Z,6.20
2022-12-16T17:55:34.810Z,6.00
2022-12-16T18:00:56.176Z,5.80
2022-12-16T18:06:18.426Z,5.70
2022-12-16T18:11:39.652Z,5.50
2022-12-16T18:17:00.901Z,5.40
2022-12-16T18:22:23.085Z,5.30
2022-12-16T18:27:44.428Z,5.20
2022-12-16T18:33:05.662Z,5.00
2022-12-16T18:38:28.100Z,4.90
2022-12-16T18:43:49.231Z,4.80
2022-12-16T18:49:10.569Z,4.70
2022-12-16T18:54:33.290Z,4.60
2022-12-16T18:59:54.374Z,4.50
2022-12-16T19:05:17.768Z,4.80
2022-12-16T19:10:39.981Z,4.40
2022-12-16T19:16:01.364Z,4.20
2022-12-16T19:21:22.785Z,4.10
2022-12-16T19:26:45.332Z,4.10
2022-12-16T19:32:06.658Z,4.00
2022-12-16T19:37:27.847Z,3.90
2022-12-16T19:42:50.416Z,3.80
2022-12-16T19:48:19.079Z,3.70
2022-12-16T19:53:40.362Z,3.70
2022-12-16T19:59:03.129Z,3.60
2022-12-16T20:04:24.421Z,3.60
2022-12-16T20:09:45.541Z,3.50
2022-12-16T20:15:08.182Z,3.50
2022-12-16T20:20:29.637Z,3.50
2022-12-16T20:25:51.791Z,3.40
2022-12-16T20:31:18.825Z,3.30
2022-12-16T20:36:40.064Z,3.30
2022-12-16T20:42:01.028Z,3.30
2022-12-16T20:47:23.788Z,3.20
2022-12-16T20:52:45.043Z,3.10
2022-12-16T20:58:06.243Z,3.00
2022-12-16T21:03:28.683Z,2.90
2022-12-16T21:08:49.753Z,2.90
2022-12-16T21:14:10.342Z,2.80
2022-12-16T21:19:33.872Z,2.70
2022-12-16T21:24:55.167Z,2.70
2022-12-16T21:30:17.413Z,2.60
2022-12-16T21:35:39.744Z,2.50
2022-12-16T21:41:00.941Z,2.40
2022-12-16T21:46:22.108Z,2.30
2022-12-16T21:51:44.614Z,2.30
2022-12-16T21:57:05.971Z,2.30
2022-12-16T22:02:31.067Z,2.20
2022-12-16T22:07:53.434Z,2.20
2022-12-16T22:13:18.058Z,2.20
2022-12-16T22:18:39.310Z,2.20
2022-12-16T22:24:02.273Z,2.10
2022-12-16T22:29:23.513Z,2.10
2022-12-16T22:34:44.802Z,2.00
2022-12-16T22:40:07.256Z,2.00
2022-12-16T22:45:28.760Z,1.90
2022-12-16T22:50:50.967Z,1.90
2022-12-16T22:56:15.308Z,1.80
2022-12-16T23:01:36.808Z,1.70
2022-12-16T23:06:58.122Z,1.70
2022-12-16T23:12:20.446Z,1.70
2022-12-16T23:17:41.636Z,1.60
2022-12-16T23:23:03.095Z,1.60
2022-12-16T23:28:25.362Z,1.60
